sensor_id;sensor_type;location;lat;lon;timestamp;pressure;altitude;pressure_sealevel;temperature;humidity
56944;BME280;42848;42.524;12.052;2023-05-27T00:02:02;96745.25;;;18.42;100.00
56944;BME280;42848;42.524;12.052;2023-05-27T00:04:28;96747.19;;;18.38;100.00
56944;BME280;42848;42.524;12.052;2023-05-27T00:06:53;96748.94;;;18.54;100.00
56944;BME280;42848;42.524;12.052;2023-05-27T00:09:20;96752.22;;;18.36;100.00
56944;BME280;42848;42.524;12.052;2023-05-27T00:11:45;96749.47;;;18.36;100.00
56944;BME280;42848;42.524;12.052;2023-05-27T00:14:11;96738.50;;;18.36;100.00
56944;BME280;42848;42.524;12.052;2023-05-27T00:16:37;96748.66;;;18.32;100.00
56944;BME280;42848;42.524;12.052;2023-05-27T00:19:03;96741.97;;;18.33;100.00
56944;BME280;42848;42.524;12.052;2023-05-27T00:21:29;96738.72;;;18.24;100.00
56944;BME280;42848;42.524;12.052;2023-05-27T00:23:55;96740.41;;;18.32;100.00
56944;BME280;42848;42.524;12.052;2023-05-27T00:26:23;96749.03;;;18.31;100.00
56944;BME280;42848;42.524;12.052;2023-05-27T00:28:49;96740.38;;;18.29;100.00
56944;BME280;42848;42.524;12.052;2023-05-27T00:31:15;96746.16;;;18.24;100.00
56944;BME280;42848;42.524;12.052;2023-05-27T00:33:41;96742.19;;;18.21;100.00
56944;BME280;42848;42.524;12.052;2023-05-27T00:36:10;96738.19;;;18.41;100.00
56944;BME280;42848;42.524;12.052;2023-05-27T00:38:36;96741.16;;;18.29;100.00
56944;BME280;42848;42.524;12.052;2023-05-27T00:41:03;96740.41;;;18.59;100.00
56944;BME280;42848;42.524;12.052;2023-05-27T00:43:30;96750.88;;;18.50;100.00
56944;BME280;42848;42.524;12.052;2023-05-27T00:45:56;96744.63;;;18.26;100.00
56944;BME280;42848;42.524;12.052;2023-05-27T00:48:23;96743.53;;;18.08;100.00
56944;BME280;42848;42.524;12.052;2023-05-27T00:50:49;96738.53;;;18.13;100.00
56944;BME280;42848;42.524;12.052;2023-05-27T00:53:16;96743.97;;;18.10;100.00
56944;BME280;42848;42.524;12.052;2023-05-27T00:55:43;96738.91;;;18.12;100.00
56944;BME280;42848;42.524;12.052;2023-05-27T00:58:09;96735.25;;;18.04;100.00
56944;BME280;42848;42.524;12.052;2023-05-27T01:00:35;96735.72;;;18.10;100.00
56944;BME280;42848;42.524;12.052;2023-05-27T01:03:05;96736.47;;;18.07;100.00
56944;BME280;42848;42.524;12.052;2023-05-27T01:05:31;96737.59;;;18.02;100.00
56944;BME280;42848;42.524;12.052;2023-05-27T01:08:27;96721.56;;;18.08;100.00
56944;BME280;42848;42.524;12.052;2023-05-27T01:10:56;96740.38;;;18.06;100.00
56944;BME280;42848;42.524;12.052;2023-05-27T01:13:39;96728.09;;;18.23;100.00
56944;BME280;42848;42.524;12.052;2023-05-27T01:16:11;96723.28;;;18.16;100.00
56944;BME280;42848;42.524;12.052;2023-05-27T01:18:39;96730.97;;;18.07;100.00
56944;BME280;42848;42.524;12.052;2023-05-27T01:21:14;96732.88;;;18.03;100.00
56944;BME280;42848;42.524;12.052;2023-05-27T01:23:43;96730.13;;;18.03;100.00
56944;BME280;42848;42.524;12.052;2023-05-27T01:26:10;96722.59;;;18.00;100.00
56944;BME280;42848;42.524;12.052;2023-05-27T01:28:36;96711.25;;;18.01;100.00
56944;BME280;42848;42.524;12.052;2023-05-27T01:31:17;96718.34;;;18.02;100.00
56944;BME280;42848;42.524;12.052;2023-05-27T01:34:18;96722.19;;;17.98;100.00
56944;BME280;42848;42.524;12.052;2023-05-27T01:36:47;96712.66;;;17.91;100.00
56944;BME280;42848;42.524;12.052;2023-05-27T01:39:14;96711.94;;;17.95;100.00
56944;BME280;42848;42.524;12.052;2023-05-27T01:41:42;96720.59;;;17.97;100.00
56944;BME280;42848;42.524;12.052;2023-05-27T01:44:09;96720.59;;;17.97;100.00
56944;BME280;42848;42.524;12.052;2023-05-27T01:46:36;96722.94;;;17.95;100.00
56944;BME280;42848;42.524;12.052;2023-05-27T01:49:02;96710.41;;;17.97;100.00
56944;BME280;42848;42.524;12.052;2023-05-27T01:51:28;96710.59;;;18.08;100.00
56944;BME280;42848;42.524;12.052;2023-05-27T01:53:54;96709.00;;;18.07;100.00
56944;BME280;42848;42.524;12.052;2023-05-27T01:56:20;96706.75;;;18.12;100.00
56944;BME280;42848;42.524;12.052;2023-05-27T01:58:45;96700.00;;;18.10;100.00
56944;BME280;42848;42.524;12.052;2023-05-27T02:01:11;96702.41;;;18.11;100.00
56944;BME280;42848;42.524;12.052;2023-05-27T02:03:37;96701.16;;;18.09;100.00
56944;BME280;42848;42.524;12.052;2023-05-27T02:06:03;96703.19;;;18.12;100.00
56944;BME280;42848;42.524;12.052;2023-05-27T02:08:29;96699.66;;;18.11;100.00
56944;BME280;42848;42.524;12.052;2023-05-27T02:10:55;96700.44;;;18.12;100.00
56944;BME280;42848;42.524;12.052;2023-05-27T02:13:21;96703.63;;;18.14;100.00
56944;BME280;42848;42.524;12.052;2023-05-27T02:15:46;96711.25;;;18.01;100.00
56944;BME280;42848;42.524;12.052;2023-05-27T02:18:12;96695.63;;;18.05;100.00
56944;BME280;42848;42.524;12.052;2023-05-27T02:20:38;96691.69;;;18.03;100.00
56944;BME280;42848;42.524;12.052;2023-05-27T02:23:06;96690.81;;;17.99;100.00
56944;BME280;42848;42.524;12.052;2023-05-27T02:25:32;96696.97;;;17.92;100.00
56944;BME280;42848;42.524;12.052;2023-05-27T02:27:57;96696.63;;;17.94;100.00
56944;BME280;42848;42.524;12.052;2023-05-27T02:30:23;96697.69;;;17.85;100.00
56944;BME280;42848;42.524;12.052;2023-05-27T02:32:48;96698.41;;;17.82;100.00
56944;BME280;42848;42.524;12.052;2023-05-27T02:35:14;96699.38;;;17.71;100.00
56944;BME280;42848;42.524;12.052;2023-05-27T02:37:40;96694.53;;;17.64;100.00
56944;BME280;42848;42.524;12.052;2023-05-27T02:40:08;96700.00;;;17.64;100.00
56944;BME280;42848;42.524;12.052;2023-05-27T02:42:34;96707.53;;;17.67;100.00
56944;BME280;42848;42.524;12.052;2023-05-27T02:45:00;96694.09;;;17.62;100.00
56944;BME280;42848;42.524;12.052;2023-05-27T02:47:25;96703.22;;;17.66;100.00
56944;BME280;42848;42.524;12.052;2023-05-27T02:49:51;96705.28;;;17.73;100.00
56944;BME280;42848;42.524;12.052;2023-05-27T02:52:17;96693.41;;;17.65;100.00
56944;BME280;42848;42.524;12.052;2023-05-27T02:54:43;96698.88;;;17.65;100.00
56944;BME280;42848;42.524;12.052;2023-05-27T02:57:08;96699.09;;;17.76;100.00
56944;BME280;42848;42.524;12.052;2023-05-27T02:59:34;96705.50;;;17.83;100.00
56944;BME280;42848;42.524;12.052;2023-05-27T03:02:00;96695.97;;;17.77;100.00
56944;BME280;42848;42.524;12.052;2023-05-27T03:04:25;96700.06;;;17.87;100.00
56944;BME280;42848;42.524;12.052;2023-05-27T03:06:51;96697.56;;;17.78;100.00
56944;BME280;42848;42.524;12.052;2023-05-27T03:09:17;96704.00;;;17.89;100.00
56944;BME280;42848;42.524;12.052;2023-05-27T03:11:42;96697.59;;;17.82;100.00
56944;BME280;42848;42.524;12.052;2023-05-27T03:14:08;96695.34;;;17.87;100.00
56944;BME280;42848;42.524;12.052;2023-05-27T03:16:34;96697.25;;;17.83;100.00
56944;BME280;42848;42.524;12.052;2023-05-27T03:18:59;96696.53;;;17.86;100.00
56944;BME280;42848;42.524;12.052;2023-05-27T03:21:26;96698.41;;;17.82;100.00
56944;BME280;42848;42.524;12.052;2023-05-27T03:23:52;96698.41;;;17.82;100.00
56944;BME280;42848;42.524;12.052;2023-05-27T03:26:17;96697.84;;;17.73;100.00
56944;BME280;42848;42.524;12.052;2023-05-27T03:28:43;96706.09;;;17.73;100.00
56944;BME280;42848;42.524;12.052;2023-05-27T03:31:09;96705.47;;;17.60;100.00
56944;BME280;42848;42.524;12.052;2023-05-27T03:33:38;96700.00;;;17.64;100.00
56944;BME280;42848;42.524;12.052;2023-05-27T03:36:04;96690.19;;;17.63;100.00
56944;BME280;42848;42.524;12.052;2023-05-27T03:38:29;96705.47;;;17.60;100.00
56944;BME280;42848;42.524;12.052;2023-05-27T03:40:55;96702.06;;;17.67;100.00
56944;BME280;42848;42.524;12.052;2023-05-27T03:43:20;96710.72;;;17.69;100.00
56944;BME280;42848;42.524;12.052;2023-05-27T03:45:47;96707.78;;;17.81;100.00
56944;BME280;42848;42.524;12.052;2023-05-27T03:48:12;96701.56;;;17.61;100.00
56944;BME280;42848;42.524;12.052;2023-05-27T03:50:38;96707.25;;;17.95;100.00
56944;BME280;42848;42.524;12.052;2023-05-27T03:53:03;96710.72;;;17.69;100.00
56944;BME280;42848;42.524;12.052;2023-05-27T03:55:29;96709.75;;;17.58;100.00
56944;BME280;42848;42.524;12.052;2023-05-27T03:57:55;96702.72;;;17.60;100.00
56944;BME280;42848;42.524;12.052;2023-05-27T04:00:21;96708.25;;;17.41;100.00
56944;BME280;42848;42.524;12.052;2023-05-27T04:02:47;96701.09;;;17.37;100.00
56944;BME280;42848;42.524;12.052;2023-05-27T04:05:12;96700.81;;;17.42;100.00
56944;BME280;42848;42.524;12.052;2023-05-27T04:07:38;96697.66;;;17.40;100.00
56944;BME280;42848;42.524;12.052;2023-05-27T04:10:04;96696.25;;;17.49;100.00
56944;BME280;42848;42.524;12.052;2023-05-27T04:12:30;96704.06;;;17.47;100.00
56944;BME280;42848;42.524;12.052;2023-05-27T04:14:56;96694.66;;;17.48;100.00
56944;BME280;42848;42.524;12.052;2023-05-27T04:17:22;96700.34;;;17.59;100.00
56944;BME280;42848;42.524;12.052;2023-05-27T04:19:48;96699.91;;;17.57;100.00
56944;BME280;42848;42.524;12.052;2023-05-27T04:22:14;96694.91;;;17.62;100.00
56944;BME280;42848;42.524;12.052;2023-05-27T04:24:40;96697.34;;;17.68;100.00
56944;BME280;42848;42.524;12.052;2023-05-27T04:27:06;96703.28;;;17.70;100.00
56944;BME280;42848;42.524;12.052;2023-05-27T04:29:33;96699.47;;;17.74;100.00
56944;BME280;42848;42.524;12.052;2023-05-27T04:31:59;96700.59;;;17.73;100.00
56944;BME280;42848;42.524;12.052;2023-05-27T04:34:25;96700.56;;;17.70;100.00
56944;BME280;42848;42.524;12.052;2023-05-27T04:36:51;96705.66;;;17.71;100.00
56944;BME280;42848;42.524;12.052;2023-05-27T04:39:17;96693.09;;;17.70;100.00
56944;BME280;42848;42.524;12.052;2023-05-27T04:41:43;96699.69;;;17.66;100.00
56944;BME280;42848;42.524;12.052;2023-05-27T04:44:11;96696.72;;;17.55;100.00
56944;BME280;42848;42.524;12.052;2023-05-27T04:46:37;96698.81;;;17.61;100.00
56944;BME280;42848;42.524;12.052;2023-05-27T04:49:09;96696.81;;;17.58;100.00
56944;BME280;42848;42.524;12.052;2023-05-27T04:51:35;96707.16;;;17.69;100.00
56944;BME280;42848;42.524;12.052;2023-05-27T04:54:01;96707.53;;;17.67;100.00
56944;BME280;42848;42.524;12.052;2023-05-27T04:56:27;96700.47;;;17.66;100.00
56944;BME280;42848;42.524;12.052;2023-05-27T04:58:52;96706.97;;;17.77;100.00
56944;BME280;42848;42.524;12.052;2023-05-27T05:01:18;96704.50;;;17.72;100.00
56944;BME280;42848;42.524;12.052;2023-05-27T05:03:46;96710.06;;;17.76;100.00
56944;BME280;42848;42.524;12.052;2023-05-27T05:06:28;96704.63;;;17.79;100.00
56944;BME280;42848;42.524;12.052;2023-05-27T05:08:53;96712.88;;;17.79;100.00
56944;BME280;42848;42.524;12.052;2023-05-27T05:11:19;96718.78;;;17.81;100.00
56944;BME280;42848;42.524;12.052;2023-05-27T05:13:45;96714.94;;;17.86;100.00
56944;BME280;42848;42.524;12.052;2023-05-27T05:16:11;96708.66;;;17.85;100.00
56944;BME280;42848;42.524;12.052;2023-05-27T05:18:36;96712.63;;;17.88;100.00
56944;BME280;42848;42.524;12.052;2023-05-27T05:21:02;96711.94;;;17.95;100.00
56944;BME280;42848;42.524;12.052;2023-05-27T05:23:28;96704.88;;;17.94;100.00
56944;BME280;42848;42.524;12.052;2023-05-27T05:25:54;96715.13;;;17.97;100.00
56944;BME280;42848;42.524;12.052;2023-05-27T05:28:23;96721.41;;;17.97;100.00
56944;BME280;42848;42.524;12.052;2023-05-27T05:30:50;96718.34;;;18.02;100.00
56944;BME280;42848;42.524;12.052;2023-05-27T05:33:16;96720.78;;;18.07;100.00
56944;BME280;42848;42.524;12.052;2023-05-27T05:35:41;96730.59;;;18.08;100.00
56944;BME280;42848;42.524;12.052;2023-05-27T05:38:07;96729.44;;;18.09;100.00
56944;BME280;42848;42.524;12.052;2023-05-27T05:40:32;96722.44;;;18.12;100.00
56944;BME280;42848;42.524;12.052;2023-05-27T05:42:58;96728.72;;;18.12;100.00
56944;BME280;42848;42.524;12.052;2023-05-27T05:45:24;96732.66;;;18.15;100.00
56944;BME280;42848;42.524;12.052;2023-05-27T05:47:50;96725.72;;;18.21;100.00
56944;BME280;42848;42.524;12.052;2023-05-27T05:50:16;96732.78;;;18.22;100.00
56944;BME280;42848;42.524;12.052;2023-05-27T05:52:42;96735.16;;;18.24;100.00
56944;BME280;42848;42.524;12.052;2023-05-27T05:55:07;96727.03;;;18.31;100.00
56944;BME280;42848;42.524;12.052;2023-05-27T05:57:33;96734.94;;;18.36;100.00
56944;BME280;42848;42.524;12.052;2023-05-27T05:59:58;96726.03;;;18.42;100.00
56944;BME280;42848;42.524;12.052;2023-05-27T06:02:24;96739.34;;;18.40;100.00
56944;BME280;42848;42.524;12.052;2023-05-27T06:04:50;96731.94;;;18.44;100.00
56944;BME280;42848;42.524;12.052;2023-05-27T06:07:16;96736.25;;;18.45;100.00
56944;BME280;42848;42.524;12.052;2023-05-27T06:09:42;96731.66;;;18.53;100.00
56944;BME280;42848;42.524;12.052;2023-05-27T06:12:07;96747.38;;;18.53;100.00
56944;BME280;42848;42.524;12.052;2023-05-27T06:14:33;96736.44;;;18.56;100.00
56944;BME280;42848;42.524;12.052;2023-05-27T06:16:59;96736.91;;;18.62;100.00
56944;BME280;42848;42.524;12.052;2023-05-27T06:19:24;96742.13;;;18.67;100.00
56944;BME280;42848;42.524;12.052;2023-05-27T06:21:50;96741.47;;;18.77;100.00
56944;BME280;42848;42.524;12.052;2023-05-27T06:24:16;96745.41;;;18.80;100.00
56944;BME280;42848;42.524;12.052;2023-05-27T06:26:42;96745.19;;;18.92;100.00
56944;BME280;42848;42.524;12.052;2023-05-27T06:29:07;96747.06;;;18.84;100.00
56944;BME280;42848;42.524;12.052;2023-05-27T06:31:33;96743.94;;;18.86;100.00
56944;BME280;42848;42.524;12.052;2023-05-27T06:33:59;96750.66;;;18.88;100.00
56944;BME280;42848;42.524;12.052;2023-05-27T06:36:24;96743.19;;;18.89;100.00
56944;BME280;42848;42.524;12.052;2023-05-27T06:38:50;96748.78;;;18.96;100.00
56944;BME280;42848;42.524;12.052;2023-05-27T06:41:16;96748.88;;;19.03;100.00
56944;BME280;42848;42.524;12.052;2023-05-27T06:43:42;96752.13;;;19.12;100.00
56944;BME280;42848;42.524;12.052;2023-05-27T06:46:08;96749.81;;;19.18;100.00
56944;BME280;42848;42.524;12.052;2023-05-27T06:48:33;96755.41;;;19.25;100.00
56944;BME280;42848;42.524;12.052;2023-05-27T06:50:59;96760.50;;;19.23;100.00
56944;BME280;42848;42.524;12.052;2023-05-27T06:53:25;96754.66;;;19.28;100.00
56944;BME280;42848;42.524;12.052;2023-05-27T06:55:51;96767.06;;;19.11;100.00
56944;BME280;42848;42.524;12.052;2023-05-27T06:58:16;96767.84;;;19.12;100.00
56944;BME280;42848;42.524;12.052;2023-05-27T07:00:42;96769.88;;;19.18;100.00
56944;BME280;42848;42.524;12.052;2023-05-27T07:03:08;96774.59;;;19.18;100.00
56944;BME280;42848;42.524;12.052;2023-05-27T07:05:33;96773.94;;;19.28;100.00
56944;BME280;42848;42.524;12.052;2023-05-27T07:07:59;96768.00;;;19.26;100.00
56944;BME280;42848;42.524;12.052;2023-05-27T07:10:25;96766.59;;;19.39;100.00
56944;BME280;42848;42.524;12.052;2023-05-27T07:12:51;96760.22;;;19.31;100.00
56944;BME280;42848;42.524;12.052;2023-05-27T07:15:16;96771.66;;;19.33;100.00
56944;BME280;42848;42.524;12.052;2023-05-27T07:17:42;96768.47;;;19.31;100.00
56944;BME280;42848;42.524;12.052;2023-05-27T07:20:08;96773.63;;;19.37;100.00
56944;BME280;42848;42.524;12.052;2023-05-27T07:22:34;96768.59;;;19.42;100.00
56944;BME280;42848;42.524;12.052;2023-05-27T07:24:59;96774.59;;;19.51;100.00
56944;BME280;42848;42.524;12.052;2023-05-27T07:27:25;96779.59;;;19.42;100.00
56944;BME280;42848;42.524;12.052;2023-05-27T07:29:50;96773.03;;;19.50;100.00
56944;BME280;42848;42.524;12.052;2023-05-27T07:32:16;96775.19;;;19.68;100.00
56944;BME280;42848;42.524;12.052;2023-05-27T07:34:42;96766.19;;;19.71;100.00
56944;BME280;42848;42.524;12.052;2023-05-27T07:37:07;96773.19;;;19.65;100.00
56944;BME280;42848;42.524;12.052;2023-05-27T07:39:33;96779.88;;;19.64;100.00
56944;BME280;42848;42.524;12.052;2023-05-27T07:41:58;96777.16;;;19.67;100.00
56944;BME280;42848;42.524;12.052;2023-05-27T07:44:24;96766.25;;;19.78;100.00
56944;BME280;42848;42.524;12.052;2023-05-27T07:46:50;96765.16;;;19.86;100.00
56944;BME280;42848;42.524;12.052;2023-05-27T07:49:15;96775.69;;;19.77;100.00
56944;BME280;42848;42.524;12.052;2023-05-27T07:51:41;96774.16;;;19.83;100.00
56944;BME280;42848;42.524;12.052;2023-05-27T07:54:07;96772.28;;;19.91;100.00
56944;BME280;42848;42.524;12.052;2023-05-27T07:56:32;96767.69;;;20.05;100.00
56944;BME280;42848;42.524;12.052;2023-05-27T07:58:59;96775.97;;;20.05;100.00
56944;BME280;42848;42.524;12.052;2023-05-27T08:01:25;96772.13;;;20.17;100.00
56944;BME280;42848;42.524;12.052;2023-05-27T08:03:56;96777.88;;;20.01;100.00
56944;BME280;42848;42.524;12.052;2023-05-27T08:06:21;96768.97;;;20.18;100.00
56944;BME280;42848;42.524;12.052;2023-05-27T08:08:47;96780.41;;;20.21;100.00
56944;BME280;42848;42.524;12.052;2023-05-27T08:11:13;96772.56;;;20.26;100.00
56944;BME280;42848;42.524;12.052;2023-05-27T08:13:39;96776.59;;;20.36;100.00
56944;BME280;42848;42.524;12.052;2023-05-27T08:16:04;96773.09;;;20.42;100.00
56944;BME280;42848;42.524;12.052;2023-05-27T08:18:30;96777.22;;;20.66;100.00
56944;BME280;42848;42.524;12.052;2023-05-27T08:20:55;96760.72;;;20.70;100.00
56944;BME280;42848;42.524;12.052;2023-05-27T08:23:21;96771.78;;;20.77;100.00
56944;BME280;42848;42.524;12.052;2023-05-27T08:25:46;96771.00;;;20.77;100.00
56944;BME280;42848;42.524;12.052;2023-05-27T08:28:12;96763.47;;;20.73;100.00
56944;BME280;42848;42.524;12.052;2023-05-27T08:30:37;96766.28;;;20.81;100.00
56944;BME280;42848;42.524;12.052;2023-05-27T08:33:03;96763.97;;;20.90;100.00
56944;BME280;42848;42.524;12.052;2023-05-27T08:35:29;96767.13;;;20.92;100.00
56944;BME280;42848;42.524;12.052;2023-05-27T08:37:54;96764.75;;;20.87;100.00
56944;BME280;42848;42.524;12.052;2023-05-27T08:40:20;96769.88;;;20.85;100.00
56944;BME280;42848;42.524;12.052;2023-05-27T08:42:47;96767.97;;;20.96;100.00
56944;BME280;42848;42.524;12.052;2023-05-27T08:45:13;96768.72;;;20.93;100.00
56944;BME280;42848;42.524;12.052;2023-05-27T08:47:39;96770.41;;;21.15;100.00
56944;BME280;42848;42.524;12.052;2023-05-27T08:50:06;96777.47;;;21.09;100.00
56944;BME280;42848;42.524;12.052;2023-05-27T08:52:32;96762.16;;;21.22;100.00
56944;BME280;42848;42.524;12.052;2023-05-27T08:55:01;96770.13;;;21.38;100.00
56944;BME280;42848;42.524;12.052;2023-05-27T08:57:30;96772.84;;;21.27;100.00
56944;BME280;42848;42.524;12.052;2023-05-27T08:59:56;96762.97;;;21.23;100.00
56944;BME280;42848;42.524;12.052;2023-05-27T09:02:22;96770.56;;;21.44;100.00
56944;BME280;42848;42.524;12.052;2023-05-27T09:04:49;96776.78;;;21.30;100.00
56944;BME280;42848;42.524;12.052;2023-05-27T09:07:17;96776.72;;;21.16;100.00
56944;BME280;42848;42.524;12.052;2023-05-27T09:09:56;96777.50;;;21.16;100.00
56944;BME280;42848;42.524;12.052;2023-05-27T09:12:24;96763.38;;;21.28;100.00
56944;BME280;42848;42.524;12.052;2023-05-27T09:14:51;96756.34;;;21.45;100.00
56944;BME280;42848;42.524;12.052;2023-05-27T09:17:17;96764.25;;;21.43;100.00
56944;BME280;42848;42.524;12.052;2023-05-27T09:19:44;96762.22;;;21.37;100.00
56944;BME280;42848;42.524;12.052;2023-05-27T09:22:29;96757.97;;;21.61;100.00
56944;BME280;42848;42.524;12.052;2023-05-27T09:24:56;96754.00;;;21.51;100.00
56944;BME280;42848;42.524;12.052;2023-05-27T09:27:29;96751.28;;;21.58;100.00
56944;BME280;42848;42.524;12.052;2023-05-27T09:29:55;96750.88;;;21.60;100.00
56944;BME280;42848;42.524;12.052;2023-05-27T09:32:30;96749.34;;;21.76;100.00
56944;BME280;42848;42.524;12.052;2023-05-27T09:34:56;96756.03;;;21.79;100.00
56944;BME280;42848;42.524;12.052;2023-05-27T09:37:29;96749.34;;;21.76;100.00
56944;BME280;42848;42.524;12.052;2023-05-27T09:39:59;96735.06;;;21.56;100.00
56944;BME280;42848;42.524;12.052;2023-05-27T09:42:25;96752.06;;;21.69;100.00
56944;BME280;42848;42.524;12.052;2023-05-27T09:44:54;96752.88;;;21.80;100.00
56944;BME280;42848;42.524;12.052;2023-05-27T09:47:20;96745.38;;;21.84;100.00
56944;BME280;42848;42.524;12.052;2023-05-27T09:49:49;96739.06;;;21.91;100.00
56944;BME280;42848;42.524;12.052;2023-05-27T09:52:18;96749.34;;;21.91;100.00
56944;BME280;42848;42.524;12.052;2023-05-27T09:54:46;96742.25;;;21.86;100.00
56944;BME280;42848;42.524;12.052;2023-05-27T09:57:14;96743.00;;;21.79;100.00
56944;BME280;42848;42.524;12.052;2023-05-27T09:59:40;96740.66;;;22.06;100.00
56944;BME280;42848;42.524;12.052;2023-05-27T10:02:06;96744.22;;;22.00;100.00
56944;BME280;42848;42.524;12.052;2023-05-27T10:04:34;96737.13;;;22.20;100.00
56944;BME280;42848;42.524;12.052;2023-05-27T10:07:02;96741.50;;;22.14;100.00
56944;BME280;42848;42.524;12.052;2023-05-27T10:09:28;96735.19;;;22.13;100.00
56944;BME280;42848;42.524;12.052;2023-05-27T10:11:54;96739.13;;;22.16;100.00
56944;BME280;42848;42.524;12.052;2023-05-27T10:14:20;96742.28;;;22.18;100.00
56944;BME280;42848;42.524;12.052;2023-05-27T10:16:53;96741.47;;;22.21;100.00
56944;BME280;42848;42.524;12.052;2023-05-27T10:19:21;96733.16;;;22.21;100.00
56944;BME280;42848;42.524;12.052;2023-05-27T10:21:46;96733.59;;;22.16;100.00
56944;BME280;42848;42.524;12.052;2023-05-27T10:24:12;96740.69;;;22.28;100.00
56944;BME280;42848;42.524;12.052;2023-05-27T10:26:44;96743.06;;;22.29;100.00
56944;BME280;42848;42.524;12.052;2023-05-27T10:29:14;96732.75;;;22.48;100.00
56944;BME280;42848;42.524;12.052;2023-05-27T10:31:50;96735.94;;;22.42;100.00
56944;BME280;42848;42.524;12.052;2023-05-27T10:34:16;96729.59;;;22.60;100.00
56944;BME280;42848;42.524;12.052;2023-05-27T10:36:46;96726.41;;;22.58;100.00
56944;BME280;42848;42.524;12.052;2023-05-27T10:39:18;96725.63;;;22.61;100.00
56944;BME280;42848;42.524;12.052;2023-05-27T10:41:53;96731.13;;;22.75;100.00
56944;BME280;42848;42.524;12.052;2023-05-27T10:44:30;96724.03;;;22.63;98.13
56944;BME280;42848;42.524;12.052;2023-05-27T10:49:27;96721.69;;;22.62;100.00
56944;BME280;42848;42.524;12.052;2023-05-27T10:51:59;96714.56;;;22.61;100.00
56944;BME280;42848;42.524;12.052;2023-05-27T10:54:30;96718.09;;;22.65;100.00
56944;BME280;42848;42.524;12.052;2023-05-27T10:56:59;96728.03;;;22.52;100.00
56944;BME280;42848;42.524;12.052;2023-05-27T10:59:35;96713.34;;;22.87;100.00
56944;BME280;42848;42.524;12.052;2023-05-27T11:02:05;96719.31;;;22.60;100.00
56944;BME280;42848;42.524;12.052;2023-05-27T11:04:35;96717.69;;;22.84;98.20
56944;BME280;42848;42.524;12.052;2023-05-27T11:07:03;96705.78;;;22.94;95.28
56944;BME280;42848;42.524;12.052;2023-05-27T11:09:29;96703.34;;;23.11;100.00
56944;BME280;42848;42.524;12.052;2023-05-27T11:11:55;96711.28;;;23.09;99.30
56944;BME280;42848;42.524;12.052;2023-05-27T11:14:23;96705.41;;;22.92;96.49
56944;BME280;42848;42.524;12.052;2023-05-27T11:16:49;96713.22;;;23.12;100.00
56944;BME280;42848;42.524;12.052;2023-05-27T11:19:20;96707.34;;;23.06;99.21
56944;BME280;42848;42.524;12.052;2023-05-27T11:21:49;96707.03;;;22.86;97.73
56944;BME280;42848;42.524;12.052;2023-05-27T11:24:19;96695.03;;;23.14;100.00
56944;BME280;42848;42.524;12.052;2023-05-27T11:26:46;96710.41;;;23.22;100.00
56944;BME280;42848;42.524;12.052;2023-05-27T11:29:15;96711.28;;;23.09;98.80
56944;BME280;42848;42.524;12.052;2023-05-27T11:31:45;96695.75;;;23.29;99.69
56944;BME280;42848;42.524;12.052;2023-05-27T11:34:15;96689.13;;;23.09;100.00
56944;BME280;42848;42.524;12.052;2023-05-27T11:36:44;96689.75;;;23.38;94.14
56944;BME280;42848;42.524;12.052;2023-05-27T11:39:14;96686.50;;;23.53;96.60
56944;BME280;42848;42.524;12.052;2023-05-27T11:41:50;96689.75;;;23.41;96.58
56944;BME280;42848;42.524;12.052;2023-05-27T11:44:18;96678.28;;;23.43;95.22
56944;BME280;42848;42.524;12.052;2023-05-27T11:46:45;96680.50;;;23.66;95.14
56944;BME280;42848;42.524;12.052;2023-05-27T11:49:18;96673.97;;;23.31;92.94
56944;BME280;42848;42.524;12.052;2023-05-27T11:51:49;96673.84;;;23.60;97.75
56944;BME280;42848;42.524;12.052;2023-05-27T11:54:22;96663.22;;;23.40;95.51
56944;BME280;42848;42.524;12.052;2023-05-27T11:56:50;96668.69;;;23.62;98.53
56944;BME280;42848;42.524;12.052;2023-05-27T11:59:17;96672.22;;;23.59;93.35
56944;BME280;42848;42.524;12.052;2023-05-27T12:01:43;96666.66;;;23.69;92.75
56944;BME280;42848;42.524;12.052;2023-05-27T12:04:10;96674.72;;;23.42;91.02
56944;BME280;42848;42.524;12.052;2023-05-27T12:06:37;96668.16;;;23.77;92.65
56944;BME280;42848;42.524;12.052;2023-05-27T12:09:09;96670.16;;;23.73;90.03
56944;BME280;42848;42.524;12.052;2023-05-27T12:11:37;96677.59;;;23.87;86.54
56944;BME280;42848;42.524;12.052;2023-05-27T12:14:04;96664.97;;;23.79;83.56
56944;BME280;42848;42.524;12.052;2023-05-27T12:16:30;96663.88;;;23.69;85.71
56944;BME280;42848;42.524;12.052;2023-05-27T12:18:57;96663.75;;;23.87;87.86
56944;BME280;42848;42.524;12.052;2023-05-27T12:21:23;96667.06;;;24.12;86.75
56944;BME280;42848;42.524;12.052;2023-05-27T12:23:50;96661.41;;;24.27;89.95
56944;BME280;42848;42.524;12.052;2023-05-27T12:26:15;96659.66;;;23.99;85.23
56944;BME280;42848;42.524;12.052;2023-05-27T12:28:42;96664.69;;;24.11;85.31
56944;BME280;42848;42.524;12.052;2023-05-27T12:31:08;96669.84;;;24.12;82.58
56944;BME280;42848;42.524;12.052;2023-05-27T12:33:35;96660.66;;;24.19;85.09
56944;BME280;42848;42.524;12.052;2023-05-27T12:36:03;96660.97;;;24.32;84.87
56944;BME280;42848;42.524;12.052;2023-05-27T12:38:31;96655.44;;;24.28;81.27
56944;BME280;42848;42.524;12.052;2023-05-27T12:40:56;96657.16;;;24.15;82.21
56944;BME280;42848;42.524;12.052;2023-05-27T12:43:23;96650.81;;;24.15;78.67